sensor_id;sensor_type;location;lat;lon;timestamp;P1;durP1;ratioP1;P2;durP2;ratioP2
12048;SDS011;6085;49.452;8.502;2023-10-19T00:03:30;7.28;;;4.45;;
12048;SDS011;6085;49.452;8.502;2023-10-19T00:07:33;8.90;;;4.68;;
12048;SDS011;6085;49.452;8.502;2023-10-19T00:11:35;7.25;;;4.30;;
12048;SDS011;6085;49.452;8.502;2023-10-19T00:15:38;7.05;;;5.13;;
12048;SDS011;6085;49.452;8.502;2023-10-19T00:19:43;9.23;;;5.55;;
12048;SDS011;6085;49.452;8.502;2023-10-19T00:23:59;6.63;;;4.75;;
12048;SDS011;6085;49.452;8.502;2023-10-19T00:28:05;7.43;;;4.55;;
12048;SDS011;6085;49.452;8.502;2023-10-19T00:32:07;9.13;;;5.15;;
12048;SDS011;6085;49.452;8.502;2023-10-19T00:36:15;8.20;;;4.47;;
12048;SDS011;6085;49.452;8.502;2023-10-19T00:40:20;7.75;;;4.30;;
12048;SDS011;6085;49.452;8.502;2023-10-19T00:44:34;7.43;;;5.38;;
12048;SDS011;6085;49.452;8.502;2023-10-19T00:48:42;6.30;;;4.03;;
12048;SDS011;6085;49.452;8.502;2023-10-19T00:52:48;7.15;;;4.95;;
12048;SDS011;6085;49.452;8.502;2023-10-19T00:56:51;7.90;;;5.20;;
12048;SDS011;6085;49.452;8.502;2023-10-19T01:00:56;10.65;;;4.85;;
12048;SDS011;6085;49.452;8.502;2023-10-19T01:05:00;7.40;;;5.82;;
12048;SDS011;6085;49.452;8.502;2023-10-19T01:09:06;9.95;;;5.88;;
12048;SDS011;6085;49.452;8.502;2023-10-19T01:13:08;6.28;;;4.47;;
12048;SDS011;6085;49.452;8.502;2023-10-19T01:17:12;9.30;;;4.97;;
12048;SDS011;6085;49.452;8.502;2023-10-19T01:21:14;6.07;;;4.90;;
12048;SDS011;6085;49.452;8.502;2023-10-19T01:25:20;7.38;;;5.03;;
12048;SDS011;6085;49.452;8.502;2023-10-19T01:29:34;7.80;;;5.10;;
12048;SDS011;6085;49.452;8.502;2023-10-19T01:33:37;6.60;;;4.55;;
12048;SDS011;6085;49.452;8.502;2023-10-19T01:37:40;8.13;;;5.03;;
12048;SDS011;6085;49.452;8.502;2023-10-19T01:41:43;6.32;;;4.45;;
12048;SDS011;6085;49.452;8.502;2023-10-19T01:45:45;8.57;;;4.95;;
12048;SDS011;6085;49.452;8.502;2023-10-19T01:49:47;7.00;;;4.45;;
12048;SDS011;6085;49.452;8.502;2023-10-19T01:53:52;9.27;;;5.00;;
12048;SDS011;6085;49.452;8.502;2023-10-19T01:57:56;5.82;;;4.18;;
12048;SDS011;6085;49.452;8.502;2023-10-19T02:01:58;8.50;;;5.03;;
12048;SDS011;6085;49.452;8.502;2023-10-19T02:06:02;5.22;;;4.10;;
12048;SDS011;6085;49.452;8.502;2023-10-19T02:10:17;6.80;;;4.63;;
12048;SDS011;6085;49.452;8.502;2023-10-19T02:14:21;7.22;;;4.22;;
12048;SDS011;6085;49.452;8.502;2023-10-19T02:18:24;6.68;;;3.97;;
12048;SDS011;6085;49.452;8.502;2023-10-19T02:22:26;8.23;;;5.03;;
12048;SDS011;6085;49.452;8.502;2023-10-19T02:26:29;5.20;;;4.57;;
12048;SDS011;6085;49.452;8.502;2023-10-19T02:30:33;7.25;;;4.57;;
12048;SDS011;6085;49.452;8.502;2023-10-19T02:34:35;6.25;;;4.30;;
12048;SDS011;6085;49.452;8.502;2023-10-19T02:38:37;9.10;;;4.97;;
12048;SDS011;6085;49.452;8.502;2023-10-19T02:42:38;6.28;;;4.68;;
12048;SDS011;6085;49.452;8.502;2023-10-19T02:46:42;8.75;;;4.55;;
12048;SDS011;6085;49.452;8.502;2023-10-19T02:50:44;6.97;;;4.47;;
12048;SDS011;6085;49.452;8.502;2023-10-19T02:54:47;6.10;;;3.50;;
12048;SDS011;6085;49.452;8.502;2023-10-19T02:58:49;6.20;;;4.65;;
12048;SDS011;6085;49.452;8.502;2023-10-19T03:02:52;7.82;;;5.32;;
12048;SDS011;6085;49.452;8.502;2023-10-19T03:06:54;6.15;;;4.32;;
12048;SDS011;6085;49.452;8.502;2023-10-19T03:10:57;7.85;;;4.68;;
12048;SDS011;6085;49.452;8.502;2023-10-19T03:15:05;6.05;;;4.97;;
12048;SDS011;6085;49.452;8.502;2023-10-19T03:19:08;7.80;;;4.72;;
12048;SDS011;6085;49.452;8.502;2023-10-19T03:23:11;7.35;;;5.55;;
12048;SDS011;6085;49.452;8.502;2023-10-19T03:27:14;5.60;;;4.65;;
12048;SDS011;6085;49.452;8.502;2023-10-19T03:31:18;9.07;;;4.60;;
12048;SDS011;6085;49.452;8.502;2023-10-19T03:35:22;6.38;;;4.28;;
12048;SDS011;6085;49.452;8.502;2023-10-19T03:39:24;7.75;;;5.35;;
12048;SDS011;6085;49.452;8.502;2023-10-19T03:43:28;7.75;;;4.70;;
12048;SDS011;6085;49.452;8.502;2023-10-19T03:47:30;6.93;;;4.13;;
12048;SDS011;6085;49.452;8.502;2023-10-19T03:51:36;4.85;;;3.78;;
12048;SDS011;6085;49.452;8.502;2023-10-19T03:55:58;6.07;;;4.32;;
12048;SDS011;6085;49.452;8.502;2023-10-19T04:00:00;6.38;;;4.32;;
12048;SDS011;6085;49.452;8.502;2023-10-19T04:04:16;3.97;;;3.58;;
12048;SDS011;6085;49.452;8.502;2023-10-19T04:08:19;6.22;;;3.60;;
12048;SDS011;6085;49.452;8.502;2023-10-19T04:12:26;6.43;;;3.97;;
12048;SDS011;6085;49.452;8.502;2023-10-19T04:16:30;5.45;;;3.75;;
12048;SDS011;6085;49.452;8.502;2023-10-19T04:20:37;6.70;;;4.35;;
12048;SDS011;6085;49.452;8.502;2023-10-19T04:24:57;4.97;;;4.00;;
12048;SDS011;6085;49.452;8.502;2023-10-19T04:28:59;5.43;;;3.33;;
12048;SDS011;6085;49.452;8.502;2023-10-19T04:33:09;6.20;;;3.42;;
12048;SDS011;6085;49.452;8.502;2023-10-19T04:37:11;5.50;;;4.38;;
12048;SDS011;6085;49.452;8.502;2023-10-19T04:41:19;4.93;;;3.67;;
12048;SDS011;6085;49.452;8.502;2023-10-19T04:45:22;6.07;;;4.03;;
12048;SDS011;6085;49.452;8.502;2023-10-19T04:49:24;6.45;;;3.67;;
12048;SDS011;6085;49.452;8.502;2023-10-19T04:53:26;7.03;;;3.72;;
12048;SDS011;6085;49.452;8.502;2023-10-19T04:57:29;3.90;;;3.38;;
12048;SDS011;6085;49.452;8.502;2023-10-19T05:01:31;6.88;;;3.97;;
12048;SDS011;6085;49.452;8.502;2023-10-19T05:05:34;4.28;;;3.20;;
12048;SDS011;6085;49.452;8.502;2023-10-19T05:09:36;5.32;;;3.70;;
12048;SDS011;6085;49.452;8.502;2023-10-19T05:13:41;4.82;;;3.47;;
12048;SDS011;6085;49.452;8.502;2023-10-19T05:17:43;4.88;;;3.25;;
12048;SDS011;6085;49.452;8.502;2023-10-19T05:21:45;5.40;;;3.42;;
12048;SDS011;6085;49.452;8.502;2023-10-19T05:25:47;4.20;;;3.50;;
12048;SDS011;6085;49.452;8.502;2023-10-19T05:29:50;4.68;;;3.10;;
12048;SDS011;6085;49.452;8.502;2023-10-19T05:33:52;4.55;;;3.30;;
12048;SDS011;6085;49.452;8.502;2023-10-19T05:37:56;4.47;;;3.28;;
12048;SDS011;6085;49.452;8.502;2023-10-19T05:41:58;4.55;;;4.15;;
12048;SDS011;6085;49.452;8.502;2023-10-19T05:46:05;5.03;;;3.85;;
12048;SDS011;6085;49.452;8.502;2023-10-19T05:50:07;5.32;;;3.80;;
12048;SDS011;6085;49.452;8.502;2023-10-19T05:54:10;4.20;;;3.80;;
12048;SDS011;6085;49.452;8.502;2023-10-19T05:58:13;5.40;;;3.35;;
12048;SDS011;6085;49.452;8.502;2023-10-19T06:02:17;5.30;;;3.88;;
12048;SDS011;6085;49.452;8.502;2023-10-19T06:06:19;5.72;;;3.50;;
12048;SDS011;6085;49.452;8.502;2023-10-19T06:10:21;5.80;;;3.63;;
12048;SDS011;6085;49.452;8.502;2023-10-19T06:14:23;4.78;;;3.63;;
12048;SDS011;6085;49.452;8.502;2023-10-19T06:18:27;6.00;;;4.38;;
12048;SDS011;6085;49.452;8.502;2023-10-19T06:22:29;7.63;;;4.47;;
12048;SDS011;6085;49.452;8.502;2023-10-19T06:26:31;5.93;;;4.43;;
12048;SDS011;6085;49.452;8.502;2023-10-19T06:30:33;7.15;;;4.93;;
12048;SDS011;6085;49.452;8.502;2023-10-19T06:34:36;5.88;;;4.65;;
12048;SDS011;6085;49.452;8.502;2023-10-19T06:38:38;5.18;;;4.18;;
12048;SDS011;6085;49.452;8.502;2023-10-19T06:42:40;5.38;;;3.58;;
12048;SDS011;6085;49.452;8.502;2023-10-19T06:46:42;4.60;;;3.88;;
12048;SDS011;6085;49.452;8.502;2023-10-19T06:50:46;6.55;;;4.22;;
12048;SDS011;6085;49.452;8.502;2023-10-19T06:54:48;9.38;;;5.72;;
12048;SDS011;6085;49.452;8.502;2023-10-19T06:58:50;7.45;;;5.72;;
12048;SDS011;6085;49.452;8.502;2023-10-19T07:02:52;7.30;;;5.00;;
12048;SDS011;6085;49.452;8.502;2023-10-19T07:06:56;7.90;;;5.28;;
12048;SDS011;6085;49.452;8.502;2023-10-19T07:10:58;7.85;;;5.53;;
12048;SDS011;6085;49.452;8.502;2023-10-19T07:15:00;8.77;;;5.60;;
12048;SDS011;6085;49.452;8.502;2023-10-19T07:19:03;8.43;;;5.53;;
12048;SDS011;6085;49.452;8.502;2023-10-19T07:23:06;6.07;;;5.30;;
12048;SDS011;6085;49.452;8.502;2023-10-19T07:27:10;6.40;;;4.25;;
12048;SDS011;6085;49.452;8.502;2023-10-19T07:31:18;7.38;;;4.60;;
12048;SDS011;6085;49.452;8.502;2023-10-19T07:35:22;8.02;;;5.40;;
12048;SDS011;6085;49.452;8.502;2023-10-19T07:39:27;5.22;;;4.03;;
12048;SDS011;6085;49.452;8.502;2023-10-19T07:43:30;7.22;;;4.53;;
12048;SDS011;6085;49.452;8.502;2023-10-19T07:47:33;5.72;;;4.40;;
12048;SDS011;6085;49.452;8.502;2023-10-19T07:51:35;6.10;;;4.35;;
12048;SDS011;6085;49.452;8.502;2023-10-19T07:55:38;8.40;;;5.47;;
12048;SDS011;6085;49.452;8.502;2023-10-19T07:59:40;9.63;;;4.82;;
12048;SDS011;6085;49.452;8.502;2023-10-19T08:03:43;7.47;;;4.95;;
12048;SDS011;6085;49.452;8.502;2023-10-19T08:07:45;5.68;;;4.28;;
12048;SDS011;6085;49.452;8.502;2023-10-19T08:11:49;4.32;;;3.85;;
12048;SDS011;6085;49.452;8.502;2023-10-19T08:15:55;5.72;;;4.45;;
12048;SDS011;6085;49.452;8.502;2023-10-19T08:19:57;6.45;;;4.30;;
12048;SDS011;6085;49.452;8.502;2023-10-19T08:24:02;7.70;;;4.97;;
12048;SDS011;6085;49.452;8.502;2023-10-19T08:28:06;7.25;;;5.57;;
12048;SDS011;6085;49.452;8.502;2023-10-19T08:32:07;6.53;;;4.30;;
12048;SDS011;6085;49.452;8.502;2023-10-19T08:36:17;4.60;;;3.72;;
12048;SDS011;6085;49.452;8.502;2023-10-19T08:40:19;3.88;;;3.08;;
12048;SDS011;6085;49.452;8.502;2023-10-19T08:44:25;3.55;;;2.92;;
12048;SDS011;6085;49.452;8.502;2023-10-19T08:48:27;3.03;;;2.72;;
12048;SDS011;6085;49.452;8.502;2023-10-19T08:52:29;2.83;;;2.55;;
12048;SDS011;6085;49.452;8.502;2023-10-19T08:56:32;3.10;;;2.58;;
12048;SDS011;6085;49.452;8.502;2023-10-19T09:00:43;3.10;;;2.80;;
12048;SDS011;6085;49.452;8.502;2023-10-19T09:04:47;3.58;;;2.50;;
12048;SDS011;6085;49.452;8.502;2023-10-19T09:08:49;2.58;;;2.33;;
12048;SDS011;6085;49.452;8.502;2023-10-19T09:13:01;3.20;;;2.90;;
12048;SDS011;6085;49.452;8.502;2023-10-19T09:17:06;2.83;;;2.63;;
12048;SDS011;6085;49.452;8.502;2023-10-19T09:21:09;5.63;;;3.00;;
12048;SDS011;6085;49.452;8.502;2023-10-19T09:25:12;3.08;;;2.65;;
12048;SDS011;6085;49.452;8.502;2023-10-19T09:29:17;3.72;;;2.55;;
12048;SDS011;6085;49.452;8.502;2023-10-19T09:33:21;2.72;;;2.47;;
12048;SDS011;6085;49.452;8.502;2023-10-19T09:37:24;3.05;;;2.47;;
12048;SDS011;6085;49.452;8.502;2023-10-19T09:41:26;3.90;;;2.25;;
12048;SDS011;6085;49.452;8.502;2023-10-19T09:45:29;3.03;;;2.38;;
12048;SDS011;6085;49.452;8.502;2023-10-19T09:49:34;3.20;;;2.67;;
12048;SDS011;6085;49.452;8.502;2023-10-19T09:53:36;2.53;;;2.33;;
12048;SDS011;6085;49.452;8.502;2023-10-19T10:02:07;4.57;;;2.20;;
12048;SDS011;6085;49.452;8.502;2023-10-19T10:06:14;4.38;;;2.10;;
12048;SDS011;6085;49.452;8.502;2023-10-19T10:10:20;8.70;;;3.47;;
12048;SDS011;6085;49.452;8.502;2023-10-19T10:14:23;3.38;;;2.13;;
12048;SDS011;6085;49.452;8.502;2023-10-19T10:18:30;2.25;;;1.85;;
12048;SDS011;6085;49.452;8.502;2023-10-19T10:22:34;3.05;;;2.05;;
12048;SDS011;6085;49.452;8.502;2023-10-19T10:39:59;1.70;;;1.60;;
12048;SDS011;6085;49.452;8.502;2023-10-19T10:44:01;2.33;;;1.60;;
12048;SDS011;6085;49.452;8.502;2023-10-19T10:48:03;1.60;;;1.50;;
12048;SDS011;6085;49.452;8.502;2023-10-19T10:52:12;1.65;;;1.55;;
12048;SDS011;6085;49.452;8.502;2023-10-19T10:56:15;2.17;;;1.98;;
12048;SDS011;6085;49.452;8.502;2023-10-19T11:00:17;4.30;;;2.00;;
12048;SDS011;6085;49.452;8.502;2023-10-19T11:04:20;1.75;;;1.60;;
12048;SDS011;6085;49.452;8.502;2023-10-19T11:08:23;2.17;;;2.00;;
12048;SDS011;6085;49.452;8.502;2023-10-19T11:12:27;3.50;;;1.30;;
12048;SDS011;6085;49.452;8.502;2023-10-19T11:16:29;2.35;;;2.15;;
12048;SDS011;6085;49.452;8.502;2023-10-19T11:20:31;1.90;;;1.77;;
12048;SDS011;6085;49.452;8.502;2023-10-19T11:24:33;2.03;;;1.65;;
12048;SDS011;6085;49.452;8.502;2023-10-19T11:28:41;3.28;;;1.90;;
12048;SDS011;6085;49.452;8.502;2023-10-19T11:32:52;3.05;;;2.17;;
12048;SDS011;6085;49.452;8.502;2023-10-19T11:36:57;2.15;;;1.83;;
12048;SDS011;6085;49.452;8.502;2023-10-19T11:40:59;3.53;;;1.80;;
12048;SDS011;6085;49.452;8.502;2023-10-19T11:45:05;2.20;;;2.00;;
12048;SDS011;6085;49.452;8.502;2023-10-19T11:49:07;2.40;;;2.20;;
12048;SDS011;6085;49.452;8.502;2023-10-19T11:53:10;2.20;;;1.95;;
12048;SDS011;6085;49.452;8.502;2023-10-19T11:57:12;3.03;;;2.17;;
12048;SDS011;6085;49.452;8.502;2023-10-19T12:01:15;2.35;;;2.10;;
12048;SDS011;6085;49.452;8.502;2023-10-19T12:05:17;2.22;;;1.98;;
12048;SDS011;6085;49.452;8.502;2023-10-19T12:09:19;1.80;;;1.70;;
12048;SDS011;6085;49.452;8.502;2023-10-19T12:13:24;1.92;;;1.67;;
12048;SDS011;6085;49.452;8.502;2023-10-19T12:17:27;2.17;;;1.98;;
12048;SDS011;6085;49.452;8.502;2023-10-19T12:21:30;2.63;;;2.38;;
12048;SDS011;6085;49.452;8.502;2023-10-19T12:25:32;2.38;;;2.17;;
12048;SDS011;6085;49.452;8.502;2023-10-19T12:29:34;2.03;;;1.90;;
12048;SDS011;6085;49.452;8.502;2023-10-19T12:33:38;3.33;;;2.60;;
12048;SDS011;6085;49.452;8.502;2023-10-19T12:37:41;2.95;;;2.70;;
12048;SDS011;6085;49.452;8.502;2023-10-19T12:41:46;3.13;;;2.63;;
12048;SDS011;6085;49.452;8.502;2023-10-19T12:45:50;4.68;;;2.45;;
12048;SDS011;6085;49.452;8.502;2023-10-19T12:49:55;3.00;;;2.70;;
12048;SDS011;6085;49.452;8.502;2023-10-19T12:53:57;2.83;;;2.47;;
12048;SDS011;6085;49.452;8.502;2023-10-19T12:58:03;2.60;;;2.35;;
12048;SDS011;6085;49.452;8.502;2023-10-19T13:02:09;4.53;;;2.65;;
12048;SDS011;6085;49.452;8.502;2023-10-19T13:06:16;3.85;;;2.80;;
12048;SDS011;6085;49.452;8.502;2023-10-19T13:10:19;4.68;;;3.22;;
12048;SDS011;6085;49.452;8.502;2023-10-19T13:14:21;2.97;;;2.72;;
12048;SDS011;6085;49.452;8.502;2023-10-19T13:18:23;3.20;;;2.70;;
12048;SDS011;6085;49.452;8.502;2023-10-19T13:22:29;4.65;;;3.22;;
12048;SDS011;6085;49.452;8.502;2023-10-19T13:26:34;2.92;;;2.47;;
12048;SDS011;6085;49.452;8.502;2023-10-19T13:30:39;4.50;;;3.28;;
12048;SDS011;6085;49.452;8.502;2023-10-19T13:34:41;3.90;;;3.15;;
12048;SDS011;6085;49.452;8.502;2023-10-19T13:38:44;6.07;;;3.88;;
12048;SDS011;6085;49.452;8.502;2023-10-19T13:42:46;4.38;;;3.45;;
12048;SDS011;6085;49.452;8.502;2023-10-19T13:46:48;6.43;;;3.33;;
12048;SDS011;6085;49.452;8.502;2023-10-19T13:50:54;3.90;;;3.15;;
12048;SDS011;6085;49.452;8.502;2023-10-19T13:55:02;5.63;;;3.63;;
12048;SDS011;6085;49.452;8.502;2023-10-19T13:59:04;5.47;;;3.22;;
12048;SDS011;6085;49.452;8.502;2023-10-19T14:03:06;2.83;;;2.63;;
12048;SDS011;6085;49.452;8.502;2023-10-19T14:07:09;6.38;;;2.75;;
12048;SDS011;6085;49.452;8.502;2023-10-19T14:11:12;3.35;;;3.05;;
12048;SDS011;6085;49.452;8.502;2023-10-19T14:15:15;3.72;;;2.88;;
12048;SDS011;6085;49.452;8.502;2023-10-19T14:19:18;6.15;;;3.17;;
12048;SDS011;6085;49.452;8.502;2023-10-19T14:23:20;4.57;;;2.85;;
12048;SDS011;6085;49.452;8.502;2023-10-19T14:27:26;3.35;;;2.85;;
12048;SDS011;6085;49.452;8.502;2023-10-19T14:31:28;3.72;;;2.83;;
12048;SDS011;6085;49.452;8.502;2023-10-19T14:35:30;4.13;;;3.38;;
12048;SDS011;6085;49.452;8.502;2023-10-19T14:39:35;3.10;;;2.80;;
12048;SDS011;6085;49.452;8.502;2023-10-19T14:43:38;5.88;;;3.33;;
12048;SDS011;6085;49.452;8.502;2023-10-19T14:47:40;5.10;;;3.30;;
12048;SDS011;6085;49.452;8.502;2023-10-19T14:51:43;6.13;;;4.00;;
12048;SDS011;6085;49.452;8.502;2023-10-19T14:55:45;8.32;;;4.30;;
12048;SDS011;6085;49.452;8.502;2023-10-19T14:59:48;7.57;;;4.25;;
12048;SDS011;6085;49.452;8.502;2023-10-19T15:03:50;5.70;;;4.18;;
12048;SDS011;6085;49.452;8.502;2023-10-19T15:07:52;5.85;;;4.25;;
12048;SDS011;6085;49.452;8.502;2023-10-19T15:11:55;6.18;;;4.32;;
12048;SDS011;6085;49.452;8.502;2023-10-19T15:16:06;5.53;;;3.83;;
12048;SDS011;6085;49.452;8.502;2023-10-19T15:20:09;7.80;;;4.85;;
12048;SDS011;6085;49.452;8.502;2023-10-19T15:24:14;5.65;;;4.32;;
12048;SDS011;6085;49.452;8.502;2023-10-19T15:28:16;5.75;;;4.68;;
12048;SDS011;6085;49.452;8.502;2023-10-19T15:32:20;6.45;;;4.85;;
12048;SDS011;6085;49.452;8.502;2023-10-19T15:36:22;5.75;;;3.83;;
12048;SDS011;6085;49.452;8.502;2023-10-19T15:40:24;8.57;;;4.47;;
12048;SDS011;6085;49.452;8.502;2023-10-19T15:44:26;8.27;;;4.15;;
12048;SDS011;6085;49.452;8.502;2023-10-19T15:48:32;4.32;;;3.72;;
12048;SDS011;6085;49.452;8.502;2023-10-19T15:52:35;6.38;;;3.90;;
12048;SDS011;6085;49.452;8.502;2023-10-19T15:56:42;4.65;;;3.70;;
12048;SDS011;6085;49.452;8.502;2023-10-19T16:00:44;4.30;;;3.00;;
12048;SDS011;6085;49.452;8.502;2023-10-19T16:04:48;3.42;;;3.00;;
12048;SDS011;6085;49.452;8.502;2023-10-19T16:08:50;4.00;;;3.50;;
12048;SDS011;6085;49.452;8.502;2023-10-19T16:12:53;5.38;;;3.70;;
12048;SDS011;6085;49.452;8.502;2023-10-19T16:16:55;3.88;;;2.65;;
12048;SDS011;6085;49.452;8.502;2023-10-19T16:20:58;4.65;;;3.10;;
12048;SDS011;6085;49.452;8.502;2023-10-19T16:25:00;4.18;;;3.00;;
12048;SDS011;6085;49.452;8.502;2023-10-19T16:29:02;3.03;;;2.67;;
12048;SDS011;6085;49.452;8.502;2023-10-19T16:33:05;3.08;;;2.63;;
12048;SDS011;6085;49.452;8.502;2023-10-19T16:37:08;4.03;;;2.35;;
12048;SDS011;6085;49.452;8.502;2023-10-19T16:41:10;3.53;;;2.03;;
12048;SDS011;6085;49.452;8.502;2023-10-19T16:45:12;2.00;;;1.83;;
12048;SDS011;6085;49.452;8.502;2023-10-19T16:49:14;5.10;;;2.08;;
12048;SDS011;6085;49.452;8.502;2023-10-19T16:53:19;3.45;;;2.55;;
12048;SDS011;6085;49.452;8.502;2023-10-19T16:57:21;3.38;;;2.80;;
12048;SDS011;6085;49.452;8.502;2023-10-19T17:01:23;4.28;;;2.97;;
12048;SDS011;6085;49.452;8.502;2023-10-19T17:05:26;6.30;;;3.00;;
12048;SDS011;6085;49.452;8.502;2023-10-19T17:09:29;4.78;;;3.03;;
12048;SDS011;6085;49.452;8.502;2023-10-19T17:13:31;2.85;;;2.38;;
12048;SDS011;6085;49.452;8.502;2023-10-19T17:17:36;2.50;;;2.30;;
12048;SDS011;6085;49.452;8.502;2023-10-19T17:21:38;3.00;;;2.60;;
12048;SDS011;6085;49.452;8.502;2023-10-19T17:25:41;3.72;;;2.20;;
12048;SDS011;6085;49.452;8.502;2023-10-19T17:29:43;3.22;;;2.33;;
12048;SDS011;6085;49.452;8.502;2023-10-19T17:33:45;3.42;;;2.88;;
12048;SDS011;6085;49.452;8.502;2023-10-19T17:37:47;3.47;;;2.58;;
12048;SDS011;6085;49.452;8.502;2023-10-19T17:41:50;3.85;;;3.00;;
12048;SDS011;6085;49.452;8.502;2023-10-19T17:45:52;3.53;;;2.60;;
12048;SDS011;6085;49.452;8.502;2023-10-19T17:49:54;2.15;;;2.03;;
12048;SDS011;6085;49.452;8.502;2023-10-19T17:53:56;2.55;;;2.35;;
12048;SDS011;6085;49.452;8.502;2023-10-19T17:58:00;1.80;;;1.70;;
12048;SDS011;6085;49.452;8.502;2023-10-19T18:02:02;2.53;;;1.65;;
12048;SDS011;6085;49.452;8.502;2023-10-19T18:06:05;4.68;;;2.38;;
12048;SDS011;6085;49.452;8.502;2023-10-19T18:10:08;3.08;;;2.05;;
12048;SDS011;6085;49.452;8.502;2023-10-19T18:14:13;5.47;;;2.60;;
12048;SDS011;6085;49.452;8.502;2023-10-19T18:18:15;2.45;;;2.22;;
12048;SDS011;6085;49.452;8.502;2023-10-19T18:22:17;2.28;;;2.10;;
12048;SDS011;6085;49.452;8.502;2023-10-19T18:26:19;3.58;;;2.38;;
12048;SDS011;6085;49.452;8.502;2023-10-19T18:30:22;3.38;;;2.50;;
12048;SDS011;6085;49.452;8.502;2023-10-19T18:34:24;2.95;;;2.72;;
12048;SDS011;6085;49.452;8.502;2023-10-19T18:38:26;3.42;;;1.90;;
12048;SDS011;6085;49.452;8.502;2023-10-19T18:42:28;2.33;;;2.13;;
12048;SDS011;6085;49.452;8.502;2023-10-19T18:46:33;2.25;;;1.88;;
12048;SDS011;6085;49.452;8.502;2023-10-19T18:50:35;2.42;;;2.22;;
12048;SDS011;6085;49.452;8.502;2023-10-19T18:54:37;1.80;;;1.70;;
12048;SDS011;6085;49.452;8.502;2023-10-19T18:58:39;2.97;;;1.77;;
12048;SDS011;6085;49.452;8.502;2023-10-19T19:02:42;4.90;;;3.08;;
12048;SDS011;6085;49.452;8.502;2023-10-19T19:06:44;3.70;;;3.00;;
12048;SDS011;6085;49.452;8.502;2023-10-19T19:10:46;2.90;;;2.63;;
12048;SDS011;6085;49.452;8.502;2023-10-19T19:14:49;4.35;;;2.45;;
12048;SDS011;6085;49.452;8.502;2023-10-19T19:18:52;3.72;;;2.78;;
12048;SDS011;6085;49.452;8.502;2023-10-19T19:22:54;4.72;;;2.72;;
12048;SDS011;6085;49.452;8.502;2023-10-19T19:26:59;3.17;;;2.70;;
12048;SDS011;6085;49.452;8.502;2023-10-19T19:31:01;1.75;;;1.65;;
12048;SDS011;6085;49.452;8.502;2023-10-19T19:35:05;2.20;;;1.55;;
12048;SDS011;6085;49.452;8.502;2023-10-19T19:39:08;1.95;;;1.70;;
12048;SDS011;6085;49.452;8.502;2023-10-19T19:43:17;2.45;;;1.80;;
12048;SDS011;6085;49.452;8.502;2023-10-19T19:47:19;1.73;;;1.52;;
12048;SDS011;6085;49.452;8.502;2023-10-19T19:51:23;2.08;;;1.98;;
12048;SDS011;6085;49.452;8.502;2023-10-19T19:55:25;1.60;;;1.50;;
12048;SDS011;6085;49.452;8.502;2023-10-19T19:59:28;3.55;;;2.10;;
12048;SDS011;6085;49.452;8.502;2023-10-19T20:03:30;1.70;;;1.60;;
12048;SDS011;6085;49.452;8.502;2023-10-19T20:07:33;2.17;;;1.98;;
12048;SDS011;6085;49.452;8.502;2023-10-19T20:11:37;2.15;;;1.95;;
12048;SDS011;6085;49.452;8.502;2023-10-19T20:15:40;1.60;;;1.50;;
12048;SDS011;6085;49.452;8.502;2023-10-19T20:19:42;2.42;;;2.20;;
12048;SDS011;6085;49.452;8.502;2023-10-19T20:23:46;1.98;;;1.80;;
12048;SDS011;6085;49.452;8.502;2023-10-19T20:27:48;3.45;;;1.80;;
12048;SDS011;6085;49.452;8.502;2023-10-19T20:31:50;2.17;;;1.95;;
12048;SDS011;6085;49.452;8.502;2023-10-19T20:35:52;1.90;;;1.80;;
12048;SDS011;6085;49.452;8.502;2023-10-19T20:39:55;4.03;;;2.70;;
12048;SDS011;6085;49.452;8.502;2023-10-19T20:44:00;4.00;;;3.33;;
12048;SDS011;6085;49.452;8.502;2023-10-19T20:48:02;6.45;;;3.47;;
12048;SDS011;6085;49.452;8.502;2023-10-19T20:52:06;4.88;;;3.45;;
12048;SDS011;6085;49.452;8.502;2023-10-19T20:56:10;4.30;;;2.97;;
12048;SDS011;6085;49.452;8.502;2023-10-19T21:00:12;3.13;;;2.83;;
12048;SDS011;6085;49.452;8.502;2023-10-19T21:04:14;3.55;;;2.95;;
12048;SDS011;6085;49.452;8.502;2023-10-19T21:08:16;1.98;;;1.88;;
12048;SDS011;6085;49.452;8.502;2023-10-19T21:12:20;2.38;;;1.75;;
12048;SDS011;6085;49.452;8.502;2023-10-19T21:16:21;4.40;;;1.80;;
12048;SDS011;6085;49.452;8.502;2023-10-19T21:20:24;2.20;;;1.73;;
12048;SDS011;6085;49.452;8.502;2023-10-19T21:24:27;4.18;;;2.38;;
12048;SDS011;6085;49.452;8.502;2023-10-19T21:28:30;2.72;;;2.15;;
12048;SDS011;6085;49.452;8.502;2023-10-19T21:32:32;2.85;;;2.60;;
12048;SDS011;6085;49.452;8.502;2023-10-19T21:36:34;3.40;;;2.38;;
12048;SDS011;6085;49.452;8.502;2023-10-19T21:40:39;3.75;;;2.53;;
12048;SDS011;6085;49.452;8.502;2023-10-19T21:44:42;2.42;;;1.75;;
12048;SDS011;6085;49.452;8.502;2023-10-19T21:48:46;1.77;;;1.63;;
12048;SDS011;6085;49.452;8.502;2023-10-19T21:52:48;2.40;;;1.90;;
12048;SDS011;6085;49.452;8.502;2023-10-19T21:56:50;1.77;;;1.67;;
12048;SDS011;6085;49.452;8.502;2023-10-19T22:00:53;1.50;;;1.40;;
12048;SDS011;6085;49.452;8.502;2023-10-19T22:04:59;1.50;;;1.40;;
12048;SDS011;6085;49.452;8.502;2023-10-19T22:09:01;1.83;;;1.70;;
12048;SDS011;6085;49.452;8.502;2023-10-19T22:13:03;3.00;;;2.42;;
12048;SDS011;6085;49.452;8.502;2023-10-19T22:17:06;3.30;;;2.88;;
12048;SDS011;6085;49.452;8.502;2023-10-19T22:21:09;3.92;;;2.20;;
12048;SDS011;6085;49.452;8.502;2023-10-19T22:25:11;2.03;;;1.92;;
12048;SDS011;6085;49.452;8.502;2023-10-19T22:29:13;3.63;;;2.90;;
12048;SDS011;6085;49.452;8.502;2023-10-19T22:33:16;2.78;;;2.13;;
12048;SDS011;6085;49.452;8.502;2023-10-19T22:37:18;2.03;;;1.90;;
12048;SDS011;6085;49.452;8.502;2023-10-19T22:41:20;1.85;;;1.73;;
12048;SDS011;6085;49.452;8.502;2023-10-19T22:45:22;1.95;;;1.75;;
12048;SDS011;6085;49.452;8.502;2023-10-19T22:49:26;1.77;;;1.58;;
12048;SDS011;6085;49.452;8.502;2023-10-19T22:53:28;1.60;;;1.50;;
12048;SDS011;6085;49.452;8.502;2023-10-19T22:57:30;1.83;;;1.73;;
12048;SDS011;6085;49.452;8.502;2023-10-19T23:01:32;1.85;;;1.75;;
12048;SDS011;6085;49.452;8.502;2023-10-19T23:05:35;1.95;;;1.85;;
12048;SDS011;6085;49.452;8.502;2023-10-19T23:09:37;2.58;;;2.05;;
12048;SDS011;6085;49.452;8.502;2023-10-19T23:13:40;2.58;;;2.38;;
12048;SDS011;6085;49.452;8.502;2023-10-19T23:17:45;2.67;;;2.47;;
12048;SDS011;6085;49.452;8.502;2023-10-19T23:21:51;3.20;;;2.40;;
12048;SDS011;6085;49.452;8.502;2023-10-19T23:25:53;2.53;;;2.00;;
12048;SDS011;6085;49.452;8.502;2023-10-19T23:29:55;5.05;;;3.25;;
12048;SDS011;6085;49.452;8.502;2023-10-19T23:33:57;3.72;;;2.00;;
12048;SDS011;6085;49.452;8.502;2023-10-19T23:38:01;2.20;;;2.00;;
12048;SDS011;6085;49.452;8.502;2023-10-19T23:42:06;3.28;;;2.35;;
12048;SDS011;6085;49.452;8.502;2023-10-19T23:46:08;3.13;;;2.65;;
12048;SDS011;6085;49.452;8.502;2023-10-19T23:50:12;3.08;;;2.78;;
12048;SDS011;6085;49.452;8.502;2023-10-19T23:54:15;3.22;;;2.08;;
12048;SDS011;6085;49.452;8.502;2023-10-19T23:58:17;4.28;;;2.58;;
